Time;durP1;ratioP1;P1;durP2;ratioP2;P2;SDS_P1;SDS_P2;PMS_P1;PMS_P2;Temp;Humidity;BMP_temperature;BMP_pressure;BME280_temperature;BME280_humidity;BME280_pressure;Samples;Min_cycle;Max_cycle;Signal;HPM_P1;HPM_P2
2021/12/10 00:01:12;;;;;;;17.42;3.15;;;;;;;11.65;68.14;98200.16;4880810;29;20037;-92
2021/12/10 00:03:42;;;;;;;15.02;3.05;;;;;;;11.87;67.50;98196.03;4897846;29;20040;-92
2021/12/10 00:06:12;;;;;;;12.07;1.67;;;;;;;11.98;67.60;98204.59;4899961;29;20036;-92
2021/12/10 00:08:43;;;;;;;16.13;2.25;;;;;;;11.87;67.11;98196.03;4900152;29;20024;-93
2021/12/10 00:11:15;;;;;;;8.45;1.80;;;;;;;11.88;66.99;98202.09;4899969;29;20025;-93
2021/12/10 00:13:44;;;;;;;12.32;1.77;;;;;;;12.10;66.56;98196.19;4899101;29;20029;-92
2021/12/10 00:16:10;;;;;;;7.95;1.60;;;;;;;12.06;66.41;98199.31;4898061;29;20484;-92
2021/12/10 00:18:38;;;;;;;9.30;1.83;;;;;;;11.75;67.24;98200.00;4899672;29;20041;-93
2021/12/10 00:21:04;;;;;;;12.63;2.13;;;;;;;11.96;65.94;98211.81;4900012;29;20111;-93
2021/12/10 00:23:31;;;;;;;19.45;1.95;;;;;;;11.97;66.30;98210.84;4899622;29;20050;-92
2021/12/10 00:26:00;;;;;;;7.13;1.52;;;;;;;12.03;66.54;98215.44;4899140;29;20523;-93
2021/12/10 00:28:33;;;;;;;12.75;2.05;;;;;;;12.07;66.39;98222.00;4899272;29;20040;-92
2021/12/10 00:31:06;;;;;;;12.15;1.63;;;;;;;12.02;66.16;98221.69;4889799;29;20028;-92
2021/12/10 00:33:38;;;;;;;15.18;1.75;;;;;;;12.07;66.57;98237.78;4880590;29;20064;-93
2021/12/10 00:36:05;;;;;;;6.18;1.77;;;;;;;12.13;66.38;98236.31;4880710;29;20029;-93
2021/12/10 00:38:30;;;;;;;14.98;2.10;;;;;;;11.88;66.44;98239.72;4880631;29;20029;-93
2021/12/10 00:40:56;;;;;;;11.65;1.88;;;;;;;11.98;66.25;98244.03;4880739;29;20081;-92
2021/12/10 00:43:22;;;;;;;11.98;1.58;;;;;;;11.87;66.09;98243.38;4880741;29;20029;-92
2021/12/10 00:45:48;;;;;;;12.60;1.77;;;;;;;11.77;67.05;98250.59;4886454;29;20542;-92
2021/12/10 00:48:14;;;;;;;6.05;1.10;;;;;;;11.92;65.91;98255.22;4899149;29;20502;-93
2021/12/10 00:50:46;;;;;;;12.23;1.60;;;;;;;11.87;65.91;98253.88;4899201;29;20052;-92
2021/12/10 00:53:12;;;;;;;9.15;1.88;;;;;;;11.85;66.08;98263.75;4899110;29;20025;-92
2021/12/10 00:55:38;;;;;;;9.55;1.83;;;;;;;11.85;65.96;98270.81;4899026;29;20045;-92
2021/12/10 00:58:03;;;;;;;9.93;1.75;;;;;;;11.63;66.34;98267.00;4899219;29;20028;-92
2021/12/10 01:00:52;;;;;;;12.52;1.95;;;;;;;11.79;65.95;98259.16;4893295;29;20037;-93
2021/12/10 01:03:25;;;;;;;10.63;1.70;;;;;;;11.82;65.47;98271.94;4892040;29;20495;-93
2021/12/10 01:06:00;;;;;;;9.90;1.80;;;;;;;11.79;65.70;98274.94;4898871;29;20028;-92
2021/12/10 01:08:27;;;;;;;12.48;1.48;;;;;;;11.62;65.61;98270.63;4898432;29;20024;-92
2021/12/10 01:11:07;;;;;;;12.63;1.55;;;;;;;11.60;65.21;98291.81;4898803;29;20036;-92
2021/12/10 01:13:36;;;;;;;8.32;1.63;;;;;;;11.75;65.19;98285.91;4898710;29;20112;-92
2021/12/10 01:27:33;;;;;;;5.85;0.90;;;;;;;10.90;65.25;98300.84;4879754;29;20044;-92
2021/12/10 01:30:21;;;;;;;6.13;0.98;;;;;;;10.90;65.14;98295.59;4880451;29;20028;-93
2021/12/10 01:32:50;;;;;;;6.95;1.33;;;;;;;10.95;64.63;98300.38;4898231;29;20029;-92
2021/12/10 01:35:21;;;;;;;7.57;1.02;;;;;;;10.69;64.84;98311.72;4898978;29;20069;-92
2021/12/10 01:37:49;;;;;;;5.35;0.70;;;;;;;10.84;64.51;98324.25;4898470;29;20040;-92
2021/12/10 01:40:18;;;;;;;4.47;0.70;;;;;;;10.94;64.26;98317.13;4898242;29;20045;-92
2021/12/10 01:42:47;;;;;;;7.53;0.80;;;;;;;11.10;64.48;98319.78;4898302;29;20036;-93
2021/12/10 01:45:27;;;;;;;3.30;0.60;;;;;;;11.22;64.08;98325.56;4895621;29;20051;-93
2021/12/10 01:48:06;;;;;;;2.58;0.63;;;;;;;11.08;64.38;98326.19;4879405;29;20040;-92
2021/12/10 01:50:33;;;;;;;2.42;0.75;;;;;;;11.10;63.88;98332.09;4879530;29;20028;-92
2021/12/10 01:53:02;;;;;;;4.63;0.70;;;;;;;11.37;63.72;98330.22;4879514;29;20029;-92
2021/12/10 01:55:31;;;;;;;6.45;0.75;;;;;;;11.32;63.51;98338.59;4879554;29;20043;-93
2021/12/10 01:57:57;;;;;;;5.60;0.82;;;;;;;11.39;63.69;98342.19;4879834;29;20033;-92
2021/12/10 02:00:28;;;;;;;3.65;0.68;;;;;;;11.27;63.73;98343.47;4885275;29;20111;-92
2021/12/10 02:02:53;;;;;;;6.30;1.08;;;;;;;11.15;63.23;98342.13;4898115;29;20025;-92
2021/12/10 02:05:19;;;;;;;6.32;1.20;;;;;;;10.95;63.22;98350.25;4898253;29;20028;-92
2021/12/10 02:07:46;;;;;;;8.75;1.10;;;;;;;10.74;63.47;98357.69;4899728;29;20039;-92
2021/12/10 02:10:13;;;;;;;7.50;0.90;;;;;;;10.67;63.63;98355.69;4897846;29;20088;-92
2021/12/10 02:12:39;;;;;;;8.15;1.55;;;;;;;10.71;63.47;98361.44;4898204;29;20147;-92
2021/12/10 02:15:06;;;;;;;4.68;1.05;;;;;;;10.57;63.48;98368.09;4896511;29;20507;-92
2021/12/10 02:17:38;;;;;;;7.45;1.45;;;;;;;10.62;63.05;98378.13;4897549;29;20081;-93
2021/12/10 02:20:08;;;;;;;5.30;1.00;;;;;;;10.55;63.45;98379.72;4898211;29;20071;-92
2021/12/10 02:22:33;;;;;;;9.65;1.00;;;;;;;10.80;62.91;98385.94;4898122;29;20048;-92
2021/12/10 02:24:59;;;;;;;4.95;1.10;;;;;;;10.82;63.46;98383.97;4898283;29;20024;-93
2021/12/10 02:27:24;;;;;;;6.90;1.30;;;;;;;10.97;62.83;98387.69;4897926;29;20032;-93
2021/12/10 02:29:49;;;;;;;6.63;0.82;;;;;;;10.88;62.56;98378.94;4896771;29;20527;-93
2021/12/10 02:32:15;;;;;;;3.85;0.68;;;;;;;10.88;62.83;98380.72;4898208;29;20021;-93
2021/12/10 02:34:42;;;;;;;9.35;1.40;;;;;;;11.01;63.13;98389.00;4898201;29;20103;-93
2021/12/10 02:37:08;;;;;;;7.00;0.98;;;;;;;10.93;62.46;98398.66;4898356;29;20032;-93
2021/12/10 02:39:33;;;;;;;8.80;1.60;;;;;;;11.00;62.67;98399.66;4898060;29;20518;-93
2021/12/10 02:41:59;;;;;;;7.05;1.10;;;;;;;10.94;62.62;98411.63;4898219;29;20028;-92
2021/12/10 02:44:27;;;;;;;4.95;1.10;;;;;;;10.88;62.80;98426.19;4885501;29;20029;-92
2021/12/10 02:46:54;;;;;;;11.23;1.45;;;;;;;10.95;62.83;98425.59;4879842;29;20041;-93
2021/12/10 02:49:20;;;;;;;7.90;1.38;;;;;;;10.57;63.48;98423.19;4879797;29;20029;-92
2021/12/10 02:51:46;;;;;;;7.93;1.17;;;;;;;10.87;62.83;98436.84;4882920;29;20056;-93
2021/12/10 02:54:16;;;;;;;6.10;0.95;;;;;;;10.91;62.92;98444.25;4881676;29;20047;-93
2021/12/10 02:56:44;;;;;;;9.60;1.30;;;;;;;10.79;62.28;98432.38;4882825;29;20036;-93
2021/12/10 02:59:10;;;;;;;8.57;1.35;;;;;;;10.62;63.25;98443.72;4894563;29;20108;-93
2021/12/10 03:01:43;;;;;;;9.75;2.20;;;;;;;10.85;62.14;98442.25;4900345;29;20029;-93
2021/12/10 03:04:09;;;;;;;10.75;1.55;;;;;;;10.89;62.25;98442.78;4900143;29;20064;-93
2021/12/10 03:06:40;;;;;;;9.60;1.50;;;;;;;10.60;63.16;98457.00;4901433;29;20360;-93
2021/12/10 03:09:06;;;;;;;13.17;1.63;;;;;;;10.62;62.36;98472.59;4901453;29;20032;-93
2021/12/10 03:11:35;;;;;;;11.88;1.58;;;;;;;10.73;62.00;98468.91;4901358;29;20032;-93
2021/12/10 03:14:08;;;;;;;9.77;1.33;;;;;;;10.39;61.99;98469.63;4900529;29;20033;-93
2021/12/10 03:16:35;;;;;;;7.18;1.55;;;;;;;10.23;61.81;98457.13;4901082;29;20512;-93
2021/12/10 03:19:00;;;;;;;2.13;0.73;;;;;;;10.02;61.47;98458.25;4901208;29;20036;-92
2021/12/10 03:21:25;;;;;;;5.30;0.90;;;;;;;10.01;61.41;98451.38;4900940;29;20036;-92
2021/12/10 03:23:51;;;;;;;4.43;0.70;;;;;;;10.22;61.45;98463.38;4901091;29;20528;-92
2021/12/10 03:26:19;;;;;;;6.53;1.35;;;;;;;10.28;60.48;98465.38;4900985;29;20032;-92
2021/12/10 03:28:45;;;;;;;11.07;1.25;;;;;;;10.02;61.51;98481.84;4890951;29;20029;-92
2021/12/10 03:31:12;;;;;;;4.50;0.50;;;;;;;10.07;61.16;98478.78;4882085;29;20025;-92
2021/12/10 03:33:41;;;;;;;6.95;0.88;;;;;;;10.22;60.96;98493.03;4882097;29;20118;-92
2021/12/10 03:36:08;;;;;;;10.50;1.58;;;;;;;10.09;62.08;98487.31;4882172;29;20021;-92
2021/12/10 03:38:35;;;;;;;5.95;1.00;;;;;;;9.88;62.92;98491.03;4881970;29;20523;-93
2021/12/10 03:41:00;;;;;;;2.05;0.85;;;;;;;10.20;61.87;98487.13;4882006;29;20033;-93
2021/12/10 03:43:26;;;;;;;5.55;1.35;;;;;;;10.13;62.33;98492.13;4890288;29;20035;-93
2021/12/10 03:45:57;;;;;;;8.43;0.95;;;;;;;10.06;62.05;98496.31;4900647;29;20101;-92
2021/12/10 03:48:30;;;;;;;7.15;1.65;;;;;;;10.15;62.15;98502.50;4899338;29;20071;-92
2021/12/10 03:50:57;;;;;;;13.15;1.27;;;;;;;10.04;62.40;98515.81;4900618;29;20036;-92
2021/12/10 03:53:23;;;;;;;7.60;1.10;;;;;;;10.02;61.89;98509.88;4900073;29;20024;-93
2021/12/10 03:55:49;;;;;;;8.75;1.00;;;;;;;9.99;62.51;98518.88;4899302;29;20396;-92
2021/12/10 03:58:16;;;;;;;7.75;1.20;;;;;;;10.04;62.35;98521.03;4891357;29;20043;-93
2021/12/10 04:00:49;;;;;;;7.10;1.00;;;;;;;9.83;63.03;98523.91;4881776;29;20123;-92
2021/12/10 04:03:18;;;;;;;6.30;1.20;;;;;;;10.02;62.80;98525.63;4881619;29;20084;-93
2021/12/10 04:05:43;;;;;;;5.88;0.98;;;;;;;9.73;62.70;98531.81;4881800;29;20392;-93
2021/12/10 04:08:09;;;;;;;4.15;0.98;;;;;;;9.99;62.51;98529.34;4882058;29;20037;-93
2021/12/10 04:10:36;;;;;;;6.00;0.95;;;;;;;10.03;62.12;98528.09;4879986;29;20040;-93
2021/12/10 04:13:01;;;;;;;8.68;0.98;;;;;;;10.06;62.31;98535.66;4880900;29;20036;-92
2021/12/10 04:15:28;;;;;;;10.27;1.92;;;;;;;9.90;63.31;98535.47;4881956;29;20033;-92
2021/12/10 04:17:55;;;;;;;5.40;1.17;;;;;;;10.07;63.28;98542.56;4881633;29;20171;-92
2021/12/10 04:20:24;;;;;;;10.52;1.25;;;;;;;10.04;63.94;98552.50;4881513;29;20392;-92
2021/12/10 04:22:50;;;;;;;9.23;1.45;;;;;;;9.76;63.82;98549.88;4893850;29;20032;-92
2021/12/10 04:25:19;;;;;;;8.25;1.10;;;;;;;9.78;64.79;98560.22;4900087;29;20035;-92
2021/12/10 04:27:47;;;;;;;6.00;0.63;;;;;;;9.43;65.24;98566.97;4899928;29;20483;-92
2021/12/10 04:30:13;;;;;;;5.03;0.60;;;;;;;9.16;66.12;98576.38;4899433;29;20037;-92
2021/12/10 04:32:41;;;;;;;3.20;0.65;;;;;;;9.21;66.97;98557.63;4899305;29;20029;-92
2021/12/10 04:35:08;;;;;;;11.88;1.40;;;;;;;9.40;66.30;98568.06;4899409;29;20035;-92
2021/12/10 04:37:34;;;;;;;6.97;1.33;;;;;;;9.45;66.11;98560.59;4886339;29;20041;-92
2021/12/10 04:40:03;;;;;;;8.30;1.20;;;;;;;9.39;65.89;98578.69;4880499;29;20061;-92
2021/12/10 04:42:29;;;;;;;8.80;0.70;;;;;;;9.30;66.15;98580.34;4880279;29;20029;-92
2021/12/10 04:44:57;;;;;;;3.53;0.82;;;;;;;9.45;65.47;98581.56;4880196;29;20040;-92
2021/12/10 04:47:23;;;;;;;6.85;0.93;;;;;;;9.30;65.74;98577.72;4881578;29;20032;-92
2021/12/10 04:49:49;;;;;;;2.75;0.60;;;;;;;9.37;65.43;98581.44;4880580;29;20028;-92
2021/12/10 04:52:14;;;;;;;3.88;0.73;;;;;;;9.27;65.47;98591.13;4880298;29;20036;-93
2021/12/10 04:54:40;;;;;;;5.05;1.00;;;;;;;9.27;66.29;98602.41;4880563;29;20033;-92
2021/12/10 04:57:06;;;;;;;5.10;0.90;;;;;;;9.37;66.26;98602.41;4880521;29;20450;-92
2021/12/10 04:59:33;;;;;;;2.08;0.80;;;;;;;9.07;66.56;98617.31;4880719;29;20075;-92
2021/12/10 05:02:00;;;;;;;7.13;1.00;;;;;;;9.28;66.05;98619.78;4881565;29;20750;-92
2021/12/10 05:04:28;;;;;;;20.25;4.45;;;;;;;9.32;66.07;98612.44;4880059;29;20021;-92
2021/12/10 05:06:54;;;;;;;13.23;1.00;;;;;;;9.11;67.04;98613.44;4879702;29;20032;-92
2021/12/10 05:09:21;;;;;;;12.50;1.30;;;;;;;9.36;66.65;98615.63;4885551;29;20032;-91
2021/12/10 05:11:47;;;;;;;8.52;1.25;;;;;;;9.36;66.39;98615.63;4898482;29;20025;-92
2021/12/10 05:14:13;;;;;;;10.18;2.08;;;;;;;9.41;66.14;98619.47;4898307;29;20502;-92
2021/12/10 05:16:43;;;;;;;6.32;0.95;;;;;;;9.36;65.28;98624.34;4898413;29;20032;-92
2021/12/10 05:19:09;;;;;;;8.15;1.00;;;;;;;9.20;66.16;98629.28;4898338;29;20081;-92
2021/12/10 05:21:36;;;;;;;7.43;1.15;;;;;;;9.16;65.62;98635.78;4898471;29;20021;-93
2021/12/10 05:24:03;;;;;;;5.15;0.93;;;;;;;9.17;65.43;98640.06;4893630;29;20048;-92
2021/12/10 05:26:30;;;;;;;6.95;1.00;;;;;;;9.36;65.14;98637.44;4879720;29;20040;-92
2021/12/10 05:28:56;;;;;;;5.88;1.00;;;;;;;9.31;64.20;98644.88;4878912;29;20055;-92
2021/12/10 05:31:22;;;;;;;8.10;0.98;;;;;;;9.30;65.62;98643.19;4879649;29;20488;-92
2021/12/10 05:33:47;;;;;;;5.63;0.77;;;;;;;9.32;65.03;98649.13;4880227;29;20388;-93
2021/12/10 05:36:13;;;;;;;6.32;0.88;;;;;;;9.23;65.43;98644.75;4880467;29;20063;-92
2021/12/10 05:38:38;;;;;;;5.32;0.93;;;;;;;9.21;64.92;98659.75;4880971;29;20123;-94
2021/12/10 05:41:06;;;;;;;5.43;1.02;;;;;;;9.19;65.09;98662.50;4880021;29;20476;-92
2021/12/10 05:43:35;;;;;;;7.68;1.25;;;;;;;9.05;64.24;98670.78;4880115;29;20025;-92
2021/12/10 05:46:01;;;;;;;8.38;1.48;;;;;;;8.91;65.51;98672.84;4879689;29;20109;-92
2021/12/10 05:48:27;;;;;;;4.63;1.02;;;;;;;9.01;64.98;98675.47;4880372;29;20041;-92
2021/12/10 05:50:53;;;;;;;3.55;1.20;;;;;;;9.03;65.03;98681.38;4879950;29;20036;-92
2021/12/10 05:53:19;;;;;;;6.30;1.02;;;;;;;8.99;64.60;98690.47;4879878;29;20036;-92
2021/12/10 05:55:45;;;;;;;7.25;1.00;;;;;;;8.97;65.17;98687.19;4897183;29;20146;-92
2021/12/10 05:58:12;;;;;;;6.90;1.40;;;;;;;8.94;65.23;98690.03;4898564;29;20137;-92
2021/12/10 06:01:02;;;;;;;8.77;1.48;;;;;;;8.83;65.47;98693.63;4898040;29;20423;-92
2021/12/10 06:03:28;;;;;;;12.95;1.95;;;;;;;8.75;65.18;98701.31;4898363;29;20029;-92
2021/12/10 06:05:53;;;;;;;10.35;1.27;;;;;;;8.80;64.95;98706.16;4898327;29;20039;-92
2021/12/10 06:08:19;;;;;;;7.05;1.05;;;;;;;8.81;65.15;98713.06;4897448;29;20060;-92
2021/12/10 06:10:46;;;;;;;6.97;1.00;;;;;;;8.74;64.91;98715.38;4879549;29;20025;-92
2021/12/10 06:13:12;;;;;;;8.48;1.25;;;;;;;8.72;65.27;98722.53;4877940;29;20017;-92
2021/12/10 06:15:38;;;;;;;8.02;1.10;;;;;;;8.73;64.99;98718.94;4879612;29;20113;-92
2021/12/10 06:18:05;;;;;;;8.63;1.25;;;;;;;8.63;66.05;98737.25;4878946;29;20487;-92
2021/12/10 06:20:34;;;;;;;9.80;0.90;;;;;;;8.77;65.55;98746.50;4878756;29;20036;-93
2021/12/10 06:23:00;;;;;;;8.45;0.98;;;;;;;8.80;65.79;98754.06;4879259;29;20498;-92
2021/12/10 06:25:30;;;;;;;6.63;1.10;;;;;;;8.80;65.46;98748.03;4881120;29;20033;-92
2021/12/10 06:27:55;;;;;;;12.55;2.17;;;;;;;8.73;65.34;98761.63;4883076;29;20063;-92
2021/12/10 06:30:25;;;;;;;5.78;0.88;;;;;;;8.82;65.58;98772.28;4883084;29;20065;-92
2021/12/10 06:32:53;;;;;;;7.80;1.02;;;;;;;8.82;65.03;98774.88;4881765;29;20021;-92
2021/12/10 06:35:19;;;;;;;10.60;1.08;;;;;;;8.60;65.86;98770.69;4882897;29;20384;-91
2021/12/10 06:37:45;;;;;;;7.40;1.30;;;;;;;8.47;65.55;98776.97;4882959;29;20049;-92
2021/12/10 06:40:15;;;;;;;10.27;1.20;;;;;;;8.40;65.66;98780.19;4883797;29;20455;-91
2021/12/10 06:42:41;;;;;;;9.18;1.17;;;;;;;8.49;65.28;98784.66;4882567;29;20112;-89
2021/12/10 06:45:10;;;;;;;10.70;1.20;;;;;;;8.32;66.29;98796.53;4882291;29;20068;-90
2021/12/10 06:47:37;;;;;;;9.15;1.48;;;;;;;8.36;66.14;98797.13;4887203;29;20084;-96
2021/12/10 06:50:05;;;;;;;8.30;1.30;;;;;;;8.30;66.07;98798.47;4897448;29;20040;-96
2021/12/10 06:52:37;;;;;;;16.65;1.45;;;;;;;8.45;65.73;98806.81;5305394;23;20043;-96
2021/12/10 06:55:05;;;;;;;12.27;1.50;;;;;;;8.41;65.92;98801.03;4982635;23;20068;-95
2021/12/10 06:57:32;;;;;;;14.82;2.35;;;;;;;8.27;66.26;98807.41;4934886;29;20047;-96
2021/12/10 06:59:57;;;;;;;10.55;1.48;;;;;;;8.36;66.08;98799.72;4925829;29;20042;-93
2021/12/10 07:02:23;;;;;;;7.65;1.58;;;;;;;8.51;65.86;98801.06;4926512;29;20064;-96
2021/12/10 07:04:48;;;;;;;9.18;1.55;;;;;;;8.56;65.82;98805.91;4926178;29;20032;-96
2021/12/10 07:07:14;;;;;;;9.93;1.77;;;;;;;8.69;65.93;98798.69;4924189;29;20029;-96
2021/12/10 07:09:48;;;;;;;7.25;1.10;;;;;;;8.71;65.75;98805.44;4932353;29;20028;-96
2021/12/10 07:12:36;;;;;;;6.88;1.25;;;;;;;8.71;64.49;98804.59;4924867;29;20047;-94
2021/12/10 07:15:04;;;;;;;6.60;0.80;;;;;;;8.65;64.18;98815.56;4918793;29;20051;-92
2021/12/10 07:17:29;;;;;;;10.98;1.52;;;;;;;8.66;64.68;98809.41;4919084;29;20115;-92
2021/12/10 07:19:55;;;;;;;10.77;1.42;;;;;;;8.42;65.18;98820.16;4912691;29;20115;-91
2021/12/10 07:22:20;;;;;;;9.88;1.65;;;;;;;8.50;65.41;98833.41;4917080;29;20054;-93
2021/12/10 07:24:46;;;;;;;4.45;1.20;;;;;;;8.36;65.47;98829.31;4913900;29;20028;-91
2021/12/10 07:27:12;;;;;;;9.50;2.42;;;;;;;8.48;65.27;98849.22;4918548;29;20066;-91
2021/12/10 07:29:41;;;;;;;6.18;1.13;;;;;;;8.34;65.68;98860.81;4915987;29;20091;-92
2021/12/10 07:32:07;;;;;;;10.70;1.20;;;;;;;8.29;65.37;98867.38;4900483;29;20033;-92
2021/12/10 07:34:32;;;;;;;7.03;1.25;;;;;;;8.24;66.46;98873.00;4902761;29;20083;-90
2021/12/10 07:36:58;;;;;;;6.93;1.40;;;;;;;8.50;65.58;98876.09;4917249;29;20395;-91
2021/12/10 07:39:23;;;;;;;5.32;0.95;;;;;;;8.50;64.57;98880.50;4901449;29;20119;-91
2021/12/10 07:41:49;;;;;;;4.95;0.85;;;;;;;8.48;64.64;98872.78;4932856;29;20036;-95
2021/12/10 07:44:15;;;;;;;6.40;0.98;;;;;;;8.32;65.56;98877.59;4931499;29;20035;-96
2021/12/10 07:46:41;;;;;;;8.82;1.55;;;;;;;8.41;64.27;98878.63;4935639;29;20399;-96
2021/12/10 07:49:14;;;;;;;6.97;1.02;;;;;;;8.27;65.55;98885.84;4939952;29;20092;-96
2021/12/10 07:51:41;;;;;;;13.52;1.98;;;;;;;8.33;65.06;98890.56;4931508;29;20016;-95
2021/12/10 07:54:06;;;;;;;10.50;1.38;;;;;;;8.26;64.33;98901.66;4934443;29;20024;-96
2021/12/10 07:56:32;;;;;;;8.90;1.17;;;;;;;8.43;64.77;98908.97;4929795;29;20047;-96
2021/12/10 07:58:59;;;;;;;7.00;1.15;;;;;;;8.30;64.49;98916.94;4917221;29;20023;-96
2021/12/10 08:01:27;;;;;;;10.25;1.00;;;;;;;8.16;64.15;98906.81;5073707;23;20034;-96
2021/12/10 08:03:54;;;;;;;6.43;1.15;;;;;;;8.12;64.12;98923.69;4927750;29;20051;-96
2021/12/10 08:06:21;;;;;;;8.23;0.80;;;;;;;8.15;64.93;98944.34;4914839;29;20032;-96
2021/12/10 08:08:48;;;;;;;5.35;1.00;;;;;;;8.33;63.95;98942.00;4902535;29;20036;-96
2021/12/10 08:11:14;;;;;;;6.38;0.77;;;;;;;8.35;64.06;98945.31;4916286;29;20502;-96
2021/12/10 08:13:39;;;;;;;6.15;1.00;;;;;;;8.31;64.40;98946.53;4903191;29;20501;-96
2021/12/10 08:18:40;;;;;;;4.05;1.42;;;;;;;8.19;64.86;98950.97;5236127;23;20032;-96
2021/12/10 08:34:02;;;;;;;6.72;0.90;;;;;;;8.40;64.59;98979.78;5010019;23;20058;-96
2021/12/10 08:36:29;;;;;;;3.28;0.70;;;;;;;8.37;64.40;98979.22;4952174;29;20115;-96
2021/12/10 08:38:56;;;;;;;8.50;0.88;;;;;;;8.55;64.86;98998.69;4941992;29;20030;-96
2021/12/10 08:41:25;;;;;;;3.35;0.75;;;;;;;8.45;64.33;98984.66;4929861;29;20032;-96
2021/12/10 08:43:52;;;;;;;3.95;0.70;;;;;;;8.52;64.48;98989.28;4929405;29;20120;-96
2021/12/10 08:46:18;;;;;;;4.43;1.00;;;;;;;8.65;64.63;98996.97;4939117;29;20034;-96
2021/12/10 08:48:44;;;;;;;3.33;0.73;;;;;;;8.79;64.91;98979.25;4939539;29;20036;-96
2021/12/10 08:51:18;;;;;;;4.63;0.80;;;;;;;9.15;63.99;98979.78;4940332;29;20031;-96
2021/12/10 08:53:44;;;;;;;2.92;0.93;;;;;;;9.37;62.81;98990.06;4940345;29;20625;-96
2021/12/10 08:56:10;;;;;;;2.78;0.95;;;;;;;9.31;62.53;98998.47;4940925;29;20071;-96
2021/12/10 08:58:35;;;;;;;9.00;1.00;;;;;;;9.13;63.07;99009.53;4940918;29;20034;-96
2021/12/10 09:01:11;;;;;;;8.95;0.70;;;;;;;9.20;62.80;98998.53;4940247;29;20054;-96
2021/12/10 09:03:37;;;;;;;4.28;1.17;;;;;;;9.19;62.71;99009.97;4938903;29;20035;-96
2021/12/10 09:06:04;;;;;;;4.38;0.82;;;;;;;9.18;62.69;99040.56;4919313;29;20083;-96
2021/12/10 09:08:30;;;;;;;5.70;0.88;;;;;;;9.18;63.37;99047.59;4924191;29;20021;-95
2021/12/10 09:10:55;;;;;;;3.65;0.80;;;;;;;9.21;63.18;99052.59;4930453;29;20108;-96
2021/12/10 09:13:21;;;;;;;3.40;0.90;;;;;;;9.12;63.19;99035.84;4940913;29;20466;-96
2021/12/10 09:15:51;;;;;;;5.32;1.10;;;;;;;9.13;62.62;99035.72;4956563;28;20024;-96
2021/12/10 09:18:17;;;;;;;8.38;1.15;;;;;;;9.08;62.62;99053.63;5194212;23;20078;-96
2021/12/10 09:20:48;;;;;;;8.23;0.90;;;;;;;9.03;63.13;99034.00;5187526;23;20036;-96
2021/12/10 09:25:52;;;;;;;3.83;1.10;;;;;;;9.30;62.59;99033.44;4936249;29;20046;-96
2021/12/10 09:28:17;;;;;;;7.97;1.13;;;;;;;9.23;61.95;99045.44;4939072;28;20024;-96
2021/12/10 09:30:48;;;;;;;7.38;1.00;;;;;;;9.06;62.61;99058.16;5012055;23;20047;-93
2021/12/10 09:33:13;;;;;;;6.32;1.08;;;;;;;9.28;62.66;99062.41;4917376;29;20039;-93
2021/12/10 09:35:39;;;;;;;7.97;1.73;;;;;;;9.39;62.61;99074.59;4919080;29;20469;-93
2021/12/10 09:38:06;;;;;;;11.50;2.13;;;;;;;9.53;62.00;99076.06;4920752;29;20024;-93
2021/12/10 09:40:37;;;;;;;5.82;1.70;;;;;;;9.72;61.91;99078.75;4904453;29;20120;-93
2021/12/10 09:43:07;;;;;;;6.78;1.30;;;;;;;10.17;61.95;99082.78;4899392;29;20040;-92
2021/12/10 09:45:35;;;;;;;4.60;1.10;;;;;;;10.46;61.01;99092.53;4902948;29;20028;-92
2021/12/10 09:48:02;;;;;;;8.95;0.85;;;;;;;10.20;60.62;99095.63;4917640;29;20028;-93
2021/12/10 09:50:31;;;;;;;7.38;0.95;;;;;;;10.80;59.34;99100.03;4917883;29;20031;-92
2021/12/10 09:52:59;;;;;;;2.00;0.68;;;;;;;10.67;59.11;99101.13;4916482;29;20036;-93
2021/12/10 09:55:27;;;;;;;5.28;0.95;;;;;;;10.94;58.38;99110.16;4917554;29;20028;-92
2021/12/10 09:57:54;;;;;;;2.75;0.70;;;;;;;10.98;58.79;99114.16;4916426;29;20480;-92
2021/12/10 10:00:31;;;;;;;4.82;0.98;;;;;;;11.11;58.46;99124.38;4914423;29;20036;-92
2021/12/10 10:02:57;;;;;;;7.15;0.80;;;;;;;11.49;58.73;99115.63;4916007;29;20036;-93
2021/12/10 10:05:27;;;;;;;3.50;0.70;;;;;;;12.58;57.88;99136.09;4917151;29;20020;-92
2021/12/10 10:07:56;;;;;;;4.55;0.80;;;;;;;13.17;54.46;99131.22;4917284;29;20055;-92
2021/12/10 10:10:24;;;;;;;6.28;1.15;;;;;;;13.95;51.08;99127.00;4912411;29;20056;-93
2021/12/10 10:12:53;;;;;;;7.00;2.17;;;;;;;14.88;50.63;99129.63;4917123;29;20039;-92
2021/12/10 10:15:29;;;;;;;4.30;0.70;;;;;;;15.51;48.51;99128.16;4917394;29;20032;-92
2021/12/10 10:17:58;;;;;;;5.55;0.95;;;;;;;16.35;48.30;99146.28;4917029;29;20032;-93
2021/12/10 10:20:26;;;;;;;4.32;0.93;;;;;;;16.34;47.30;99140.19;4917216;29;20387;-95
2021/12/10 10:22:52;;;;;;;4.20;0.75;;;;;;;17.36;45.38;99153.31;4917193;29;20036;-92
2021/12/10 10:25:22;;;;;;;4.85;0.80;;;;;;;17.64;43.09;99163.38;4913826;29;20029;-94
2021/12/10 10:27:48;;;;;;;6.18;1.10;;;;;;;17.54;43.12;99152.19;4898599;29;20032;-94
2021/12/10 10:30:28;;;;;;;6.03;0.95;;;;;;;17.28;42.84;99158.69;4897997;29;20239;-94
2021/12/10 10:32:57;;;;;;;1.27;0.40;;;;;;;16.80;43.73;99160.66;4897960;29;20055;-94
2021/12/10 10:35:27;;;;;;;4.82;0.95;;;;;;;16.42;44.98;99158.69;4899226;29;20551;-94
2021/12/10 10:37:54;;;;;;;2.65;0.77;;;;;;;16.60;44.35;99154.97;4898227;29;20085;-93
2021/12/10 10:40:23;;;;;;;3.10;0.77;;;;;;;16.56;46.02;99159.78;4897334;29;20071;-92
2021/12/10 10:42:50;;;;;;;5.47;0.73;;;;;;;16.66;46.06;99165.69;4900743;29;20084;-93
2021/12/10 10:45:23;;;;;;;4.63;1.23;;;;;;;16.47;45.80;99155.53;4901092;29;20064;-92
2021/12/10 10:47:50;;;;;;;5.20;0.85;;;;;;;16.13;45.70;99169.88;4900397;29;20088;-92
2021/12/10 10:50:20;;;;;;;6.30;1.00;;;;;;;16.65;44.97;99169.34;4899296;29;20036;-92
2021/12/10 10:52:51;;;;;;;8.27;1.77;;;;;;;16.44;45.25;99163.81;4898368;29;20120;-93
2021/12/10 10:55:30;;;;;;;6.13;0.93;;;;;;;16.94;45.67;99177.66;4898398;29;20028;-93
2021/12/10 10:58:00;;;;;;;7.32;1.10;;;;;;;17.67;43.91;99168.28;4898318;29;20045;-93
2021/12/10 11:00:31;;;;;;;7.40;1.45;;;;;;;17.85;43.43;99173.28;4897952;29;20083;-93
2021/12/10 11:03:01;;;;;;;;;;;;;;;17.81;42.91;99177.28;4898200;29;20119;-92
2021/12/10 11:05:27;;;;;;;14.27;1.92;;;;;;;17.85;43.09;99181.25;4910554;29;20379;-93
2021/12/10 11:08:00;;;;;;;17.58;12.15;;;;;;;18.42;42.15;99177.16;4917039;29;20036;-92
2021/12/10 11:10:31;;;;;;;5.55;1.10;;;;;;;18.18;41.49;99179.09;4915831;29;20047;-93
2021/12/10 11:13:15;;;;;;;5.75;1.58;;;;;;;18.29;41.28;99177.00;4920154;29;20478;-93
2021/12/10 11:16:08;;;;;;;5.40;0.85;;;;;;;18.57;40.82;99191.25;4919023;29;20028;-93
2021/12/10 11:18:55;;;;;;;11.93;0.93;;;;;;;18.54;41.36;99193.44;4916745;29;20051;-93
2021/12/10 11:21:51;;;;;;;6.90;1.20;;;;;;;18.33;41.23;99189.72;4901207;29;20024;-93
2021/12/10 11:24:46;;;;;;;5.80;1.58;;;;;;;18.09;40.63;99187.31;4899332;29;20054;-92
2021/12/10 11:27:18;;;;;;;9.18;1.33;;;;;;;18.54;42.55;99196.94;4901154;29;20094;-93
2021/12/10 11:30:00;;;;;;;3.38;0.80;;;;;;;18.77;41.43;99190.66;4900893;29;20066;-93
2021/12/10 11:32:26;;;;;;;12.68;2.25;;;;;;;18.81;41.61;99197.28;4901237;29;20123;-93
2021/12/10 11:35:03;;;;;;;4.10;1.00;;;;;;;19.11;41.56;99197.19;4912797;29;20115;-92
2021/12/10 11:37:44;;;;;;;4.70;1.35;;;;;;;19.29;41.05;99210.88;4920050;29;20111;-93
2021/12/10 11:40:24;;;;;;;5.68;1.48;;;;;;;19.42;40.31;99215.50;4919863;29;20164;-92
2021/12/10 11:42:56;;;;;;;7.50;1.52;;;;;;;19.30;41.06;99207.22;4919647;29;20520;-94
2021/12/10 11:45:43;;;;;;;7.45;1.45;;;;;;;18.07;41.60;99210.59;4919801;29;20024;-93
2021/12/10 11:48:18;;;;;;;7.50;1.42;;;;;;;17.81;41.77;99217.97;4919467;29;20529;-93
2021/12/10 11:50:55;;;;;;;3.00;0.90;;;;;;;17.48;42.83;99222.72;4915164;29;20059;-92
2021/12/10 11:53:21;;;;;;;9.85;1.50;;;;;;;16.62;44.62;99230.63;4919543;29;20031;-92
2021/12/10 11:56:06;;;;;;;6.20;1.55;;;;;;;16.45;46.07;99231.72;4919793;29;20032;-93
2021/12/10 11:58:31;;;;;;;5.90;1.30;;;;;;;16.45;45.14;99231.72;4919831;29;20091;-92
2021/12/10 12:00:57;;;;;;;5.72;1.02;;;;;;;16.35;44.46;99237.22;4917882;29;20024;-93
2021/12/10 12:03:32;;;;;;;8.40;1.10;;;;;;;16.77;45.93;99235.22;4919246;29;20026;-92
2021/12/10 12:05:58;;;;;;;10.65;1.30;;;;;;;16.36;45.60;99243.31;4918329;29;20493;-92
2021/12/10 12:08:24;;;;;;;5.07;1.08;;;;;;;16.23;46.28;99234.09;4919338;29;20039;-92
2021/12/10 12:11:01;;;;;;;8.75;1.30;;;;;;;15.58;46.17;99245.53;4920164;29;20032;-92
2021/12/10 12:13:35;;;;;;;4.32;1.13;;;;;;;15.18;47.64;99248.97;4919055;29;20028;-92